sensor_id;sensor_type;location;lat;lon;timestamp;pressure;altitude;pressure_sealevel;temperature;humidity
60897;BME280;46749;32.932;-117.130;2023-07-29T00:00:58;101166.13;;;18.21;62.36
60897;BME280;46749;32.932;-117.130;2023-07-29T00:03:26;101170.50;;;18.22;62.22
60897;BME280;46749;32.932;-117.130;2023-07-29T00:05:52;101159.97;;;18.20;62.15
60897;BME280;46749;32.932;-117.130;2023-07-29T00:08:18;101163.50;;;18.22;62.31
60897;BME280;46749;32.932;-117.130;2023-07-29T00:10:44;101164.41;;;18.23;62.06
60897;BME280;46749;32.932;-117.130;2023-07-29T00:13:10;101160.03;;;18.23;62.06
60897;BME280;46749;32.932;-117.130;2023-07-29T00:15:36;101158.28;;;18.24;62.29
60897;BME280;46749;32.932;-117.130;2023-07-29T00:18:03;101160.91;;;18.24;62.39
60897;BME280;46749;32.932;-117.130;2023-07-29T00:20:29;101158.28;;;18.25;62.56
60897;BME280;46749;32.932;-117.130;2023-07-29T00:22:55;101153.91;;;18.26;62.46
60897;BME280;46749;32.932;-117.130;2023-07-29T00:25:23;101155.69;;;18.27;62.32
60897;BME280;46749;32.932;-117.130;2023-07-29T00:27:49;101154.81;;;18.28;62.38
60897;BME280;46749;32.932;-117.130;2023-07-29T00:30:16;101159.19;;;18.29;62.29
60897;BME280;46749;32.932;-117.130;2023-07-29T00:32:42;101159.19;;;18.29;62.16
60897;BME280;46749;32.932;-117.130;2023-07-29T00:35:08;101158.34;;;18.30;62.35
60897;BME280;46749;32.932;-117.130;2023-07-29T00:37:34;101162.75;;;18.31;62.37
60897;BME280;46749;32.932;-117.130;2023-07-29T00:40:03;101155.72;;;18.31;62.04
60897;BME280;46749;32.932;-117.130;2023-07-29T00:42:30;101153.97;;;18.30;62.28
60897;BME280;46749;32.932;-117.130;2023-07-29T00:44:56;101155.75;;;18.33;62.40
60897;BME280;46749;32.932;-117.130;2023-07-29T00:47:22;101155.75;;;18.33;62.10
60897;BME280;46749;32.932;-117.130;2023-07-29T00:49:50;101152.25;;;18.34;62.46
60897;BME280;46749;32.932;-117.130;2023-07-29T00:52:17;101153.13;;;18.33;62.13
60897;BME280;46749;32.932;-117.130;2023-07-29T00:54:43;101146.13;;;18.35;62.36
60897;BME280;46749;32.932;-117.130;2023-07-29T00:57:10;101142.66;;;18.36;62.16
60897;BME280;46749;32.932;-117.130;2023-07-29T00:59:39;101144.41;;;18.36;62.41
60897;BME280;46749;32.932;-117.130;2023-07-29T01:02:06;101141.78;;;18.37;62.22
60897;BME280;46749;32.932;-117.130;2023-07-29T01:04:33;101136.53;;;18.37;62.42
60897;BME280;46749;32.932;-117.130;2023-07-29T01:10:02;101149.69;;;18.40;61.99
60897;BME280;46749;32.932;-117.130;2023-07-29T01:17:43;101140.09;;;18.42;61.99
60897;BME280;46749;32.932;-117.130;2023-07-29T01:20:14;101148.84;;;18.43;62.40
60897;BME280;46749;32.932;-117.130;2023-07-29T01:22:41;101150.59;;;18.42;62.12
60897;BME280;46749;32.932;-117.130;2023-07-29T01:25:08;101153.25;;;18.44;62.33
60897;BME280;46749;32.932;-117.130;2023-07-29T01:27:34;101144.47;;;18.43;61.99
60897;BME280;46749;32.932;-117.130;2023-07-29T01:30:01;101143.59;;;18.44;62.51
60897;BME280;46749;32.932;-117.130;2023-07-29T01:37:46;101143.63;;;18.47;62.32
60897;BME280;46749;32.932;-117.130;2023-07-29T01:40:14;101144.50;;;18.48;62.36
60897;BME280;46749;32.932;-117.130;2023-07-29T01:42:42;101146.28;;;18.49;62.40
60897;BME280;46749;32.932;-117.130;2023-07-29T01:45:08;101151.56;;;18.49;62.01
60897;BME280;46749;32.932;-117.130;2023-07-29T01:47:35;101157.69;;;18.49;62.31
60897;BME280;46749;32.932;-117.130;2023-07-29T01:50:02;101165.59;;;18.51;62.60
60897;BME280;46749;32.932;-117.130;2023-07-29T01:52:29;101164.72;;;18.50;62.06
60897;BME280;46749;32.932;-117.130;2023-07-29T01:54:55;101172.63;;;18.52;62.32
60897;BME280;46749;32.932;-117.130;2023-07-29T01:57:21;101166.47;;;18.51;62.36
60897;BME280;46749;32.932;-117.130;2023-07-29T01:59:47;101173.50;;;18.52;62.17
60897;BME280;46749;32.932;-117.130;2023-07-29T02:02:13;101165.59;;;18.52;62.10
60897;BME280;46749;32.932;-117.130;2023-07-29T02:04:39;101171.78;;;18.54;62.48
60897;BME280;46749;32.932;-117.130;2023-07-29T02:07:06;101176.13;;;18.54;62.27
60897;BME280;46749;32.932;-117.130;2023-07-29T02:09:32;101179.69;;;18.54;62.05
60897;BME280;46749;32.932;-117.130;2023-07-29T02:11:58;101181.38;;;18.54;61.98
60897;BME280;46749;32.932;-117.130;2023-07-29T02:14:24;101182.31;;;18.56;61.98
60897;BME280;46749;32.932;-117.130;2023-07-29T02:16:50;101180.56;;;18.56;62.33
60897;BME280;46749;32.932;-117.130;2023-07-29T02:19:17;101195.47;;;18.57;62.17
60897;BME280;46749;32.932;-117.130;2023-07-29T02:21:43;101198.09;;;18.57;61.99
60897;BME280;46749;32.932;-117.130;2023-07-29T02:24:09;101206.00;;;18.57;62.41
60897;BME280;46749;32.932;-117.130;2023-07-29T02:26:35;101213.03;;;18.58;61.87
60897;BME280;46749;32.932;-117.130;2023-07-29T02:29:01;101220.91;;;18.58;62.35
60897;BME280;46749;32.932;-117.130;2023-07-29T02:31:28;101212.16;;;18.59;62.05
60897;BME280;46749;32.932;-117.130;2023-07-29T02:33:54;101223.56;;;18.60;62.17
60897;BME280;46749;32.932;-117.130;2023-07-29T02:36:21;101224.47;;;18.60;62.19
60897;BME280;46749;32.932;-117.130;2023-07-29T02:38:47;101227.09;;;18.62;62.11
60897;BME280;46749;32.932;-117.130;2023-07-29T02:41:13;101222.72;;;18.63;62.12
60897;BME280;46749;32.932;-117.130;2023-07-29T02:43:42;101221.91;;;18.67;62.27
60897;BME280;46749;32.932;-117.130;2023-07-29T02:46:09;101233.34;;;18.69;62.41
60897;BME280;46749;32.932;-117.130;2023-07-29T02:48:35;101224.59;;;18.70;62.34
60897;BME280;46749;32.932;-117.130;2023-07-29T02:51:01;101234.22;;;18.69;62.21
60897;BME280;46749;32.932;-117.130;2023-07-29T02:53:27;101231.59;;;18.69;61.93
60897;BME280;46749;32.932;-117.130;2023-07-29T02:55:53;101231.59;;;18.69;62.25
60897;BME280;46749;32.932;-117.130;2023-07-29T02:58:20;101234.22;;;18.69;62.41
60897;BME280;46749;32.932;-117.130;2023-07-29T03:00:46;101228.97;;;18.69;62.44
60897;BME280;46749;32.932;-117.130;2023-07-29T03:03:14;101229.84;;;18.70;62.21
60897;BME280;46749;32.932;-117.130;2023-07-29T03:05:40;101228.09;;;18.70;62.14
60897;BME280;46749;32.932;-117.130;2023-07-29T03:08:06;101232.47;;;18.70;62.21
60897;BME280;46749;32.932;-117.130;2023-07-29T03:10:35;101231.59;;;18.71;62.09
60897;BME280;46749;32.932;-117.130;2023-07-29T03:13:04;101221.97;;;18.70;62.16
60897;BME280;46749;32.932;-117.130;2023-07-29T03:15:30;101229.84;;;18.70;62.31
60897;BME280;46749;32.932;-117.130;2023-07-29T03:17:56;101226.34;;;18.71;62.12
60897;BME280;46749;32.932;-117.130;2023-07-29T03:20:22;101225.47;;;18.70;62.40
60897;BME280;46749;32.932;-117.130;2023-07-29T03:22:48;101231.66;;;18.74;62.18
60897;BME280;46749;32.932;-117.130;2023-07-29T03:25:15;101234.31;;;18.75;62.25
60897;BME280;46749;32.932;-117.130;2023-07-29T03:27:41;101229.03;;;18.74;62.04
60897;BME280;46749;32.932;-117.130;2023-07-29T03:30:07;101233.41;;;18.75;61.93
60897;BME280;46749;32.932;-117.130;2023-07-29T03:32:34;101237.81;;;18.74;61.69
60897;BME280;46749;32.932;-117.130;2023-07-29T03:35:00;101230.78;;;18.73;61.87
60897;BME280;46749;32.932;-117.130;2023-07-29T03:37:26;101229.88;;;18.73;62.25
60897;BME280;46749;32.932;-117.130;2023-07-29T03:39:52;101227.22;;;18.71;61.91
60897;BME280;46749;32.932;-117.130;2023-07-29T03:42:18;101233.38;;;18.72;61.80
60897;BME280;46749;32.932;-117.130;2023-07-29T03:44:45;101243.03;;;18.73;61.96
60897;BME280;46749;32.932;-117.130;2023-07-29T03:47:11;101246.56;;;18.73;62.15
60897;BME280;46749;32.932;-117.130;2023-07-29T03:49:37;101249.19;;;18.73;61.87
60897;BME280;46749;32.932;-117.130;2023-07-29T03:52:03;101254.47;;;18.75;61.84
60897;BME280;46749;32.932;-117.130;2023-07-29T03:54:30;101252.72;;;18.75;61.95
60897;BME280;46749;32.932;-117.130;2023-07-29T03:56:56;101262.38;;;18.75;62.07
60897;BME280;46749;32.932;-117.130;2023-07-29T03:59:22;101261.50;;;18.76;62.01
60897;BME280;46749;32.932;-117.130;2023-07-29T04:01:48;101257.13;;;18.76;61.99
60897;BME280;46749;32.932;-117.130;2023-07-29T04:04:15;101255.38;;;18.77;62.12
60897;BME280;46749;32.932;-117.130;2023-07-29T04:06:41;101260.63;;;18.77;61.81
60897;BME280;46749;32.932;-117.130;2023-07-29T04:09:07;101258.88;;;18.76;62.08
60897;BME280;46749;32.932;-117.130;2023-07-29T04:11:33;101267.63;;;18.76;61.92
60897;BME280;46749;32.932;-117.130;2023-07-29T04:14:00;101264.13;;;18.77;62.08
60897;BME280;46749;32.932;-117.130;2023-07-29T04:16:26;101266.75;;;18.76;61.95
60897;BME280;46749;32.932;-117.130;2023-07-29T04:18:52;101272.03;;;18.76;61.61
60897;BME280;46749;32.932;-117.130;2023-07-29T04:21:18;101277.28;;;18.76;61.83
60897;BME280;46749;32.932;-117.130;2023-07-29T04:23:44;101274.66;;;18.76;62.19
60897;BME280;46749;32.932;-117.130;2023-07-29T04:26:10;101274.66;;;18.76;61.83
60897;BME280;46749;32.932;-117.130;2023-07-29T04:28:36;101272.91;;;18.76;62.14
60897;BME280;46749;32.932;-117.130;2023-07-29T04:31:03;101274.66;;;18.76;62.15
60897;BME280;46749;32.932;-117.130;2023-07-29T04:33:30;101277.28;;;18.74;61.77
60897;BME280;46749;32.932;-117.130;2023-07-29T04:35:57;101271.13;;;18.75;61.90
60897;BME280;46749;32.932;-117.130;2023-07-29T04:38:31;101276.41;;;18.77;61.46
60897;BME280;46749;32.932;-117.130;2023-07-29T04:40:58;101285.13;;;18.73;60.70
60897;BME280;46749;32.932;-117.130;2023-07-29T04:43:30;101286.88;;;18.71;60.92
60897;BME280;46749;32.932;-117.130;2023-07-29T04:45:56;101292.09;;;18.68;60.89
60897;BME280;46749;32.932;-117.130;2023-07-29T04:48:23;101289.47;;;18.68;61.16
60897;BME280;46749;32.932;-117.130;2023-07-29T04:50:49;101291.25;;;18.69;61.32
60897;BME280;46749;32.932;-117.130;2023-07-29T04:53:15;101288.59;;;18.67;61.05
60897;BME280;46749;32.932;-117.130;2023-07-29T04:55:42;101288.59;;;18.67;61.07
60897;BME280;46749;32.932;-117.130;2023-07-29T04:58:09;101300.00;;;18.68;61.41
60897;BME280;46749;32.932;-117.130;2023-07-29T05:00:35;101300.00;;;18.68;61.62
60897;BME280;46749;32.932;-117.130;2023-07-29T05:03:02;101305.25;;;18.68;61.32
60897;BME280;46749;32.932;-117.130;2023-07-29T05:05:28;101293.84;;;18.67;61.41
60897;BME280;46749;32.932;-117.130;2023-07-29T05:07:54;101301.75;;;18.69;61.40
60897;BME280;46749;32.932;-117.130;2023-07-29T05:10:20;101297.38;;;18.69;61.23
60897;BME280;46749;32.932;-117.130;2023-07-29T05:12:46;101295.63;;;18.70;61.33
60897;BME280;46749;32.932;-117.130;2023-07-29T05:15:13;101298.25;;;18.70;61.41
60897;BME280;46749;32.932;-117.130;2023-07-29T05:17:39;101292.13;;;18.69;61.26
60897;BME280;46749;32.932;-117.130;2023-07-29T05:20:05;101296.50;;;18.69;61.64
60897;BME280;46749;32.932;-117.130;2023-07-29T05:22:32;101299.13;;;18.69;61.52
60897;BME280;46749;32.932;-117.130;2023-07-29T05:24:58;101296.50;;;18.69;61.42
60897;BME280;46749;32.932;-117.130;2023-07-29T05:27:24;101293.88;;;18.69;62.00
60897;BME280;46749;32.932;-117.130;2023-07-29T05:29:50;101285.97;;;18.69;61.74
60897;BME280;46749;32.932;-117.130;2023-07-29T05:32:16;101285.97;;;18.69;61.45
60897;BME280;46749;32.932;-117.130;2023-07-29T05:34:43;101285.97;;;18.69;61.57
60897;BME280;46749;32.932;-117.130;2023-07-29T05:37:09;101285.97;;;18.69;61.79
60897;BME280;46749;32.932;-117.130;2023-07-29T05:39:35;101293.88;;;18.69;61.64
60897;BME280;46749;32.932;-117.130;2023-07-29T05:42:02;101294.75;;;18.68;61.32
60897;BME280;46749;32.932;-117.130;2023-07-29T05:44:29;101295.63;;;18.68;61.42
60897;BME280;46749;32.932;-117.130;2023-07-29T05:46:56;101294.75;;;18.68;61.84
60897;BME280;46749;32.932;-117.130;2023-07-29T05:49:23;101286.84;;;18.68;61.54
60897;BME280;46749;32.932;-117.130;2023-07-29T05:51:49;101295.56;;;18.67;61.84
60897;BME280;46749;32.932;-117.130;2023-07-29T05:54:20;101287.69;;;18.67;61.59
60897;BME280;46749;32.932;-117.130;2023-07-29T05:56:46;101292.94;;;18.67;61.60
60897;BME280;46749;32.932;-117.130;2023-07-29T05:59:12;101286.78;;;18.66;61.67
60897;BME280;46749;32.932;-117.130;2023-07-29T06:01:38;101292.94;;;18.67;61.36
60897;BME280;46749;32.932;-117.130;2023-07-29T06:04:04;101292.03;;;18.66;61.58
60897;BME280;46749;32.932;-117.130;2023-07-29T06:06:31;101285.88;;;18.66;61.85
60897;BME280;46749;32.932;-117.130;2023-07-29T06:08:57;101290.25;;;18.65;61.87
60897;BME280;46749;32.932;-117.130;2023-07-29T06:11:23;101286.75;;;18.65;61.68
60897;BME280;46749;32.932;-117.130;2023-07-29T06:13:50;101292.88;;;18.64;61.79
60897;BME280;46749;32.932;-117.130;2023-07-29T06:16:16;101285.88;;;18.64;61.69
60897;BME280;46749;32.932;-117.130;2023-07-29T06:18:42;101287.63;;;18.64;61.90
60897;BME280;46749;32.932;-117.130;2023-07-29T06:21:08;101292.88;;;18.64;61.97
60897;BME280;46749;32.932;-117.130;2023-07-29T06:23:38;101284.97;;;18.62;61.80
60897;BME280;46749;32.932;-117.130;2023-07-29T06:26:04;101285.88;;;18.63;61.53
60897;BME280;46749;32.932;-117.130;2023-07-29T06:28:31;101285.88;;;18.63;61.64
60897;BME280;46749;32.932;-117.130;2023-07-29T06:30:57;101279.72;;;18.62;61.46
60897;BME280;46749;32.932;-117.130;2023-07-29T06:33:23;101289.38;;;18.62;61.59
60897;BME280;46749;32.932;-117.130;2023-07-29T06:35:49;101285.88;;;18.63;61.47
60897;BME280;46749;32.932;-117.130;2023-07-29T06:38:16;101282.34;;;18.62;61.91
60897;BME280;46749;32.932;-117.130;2023-07-29T06:40:47;101290.22;;;18.60;61.73
60897;BME280;46749;32.932;-117.130;2023-07-29T06:43:14;101289.38;;;18.62;61.65
60897;BME280;46749;32.932;-117.130;2023-07-29T06:45:40;101291.94;;;18.60;61.62
60897;BME280;46749;32.932;-117.130;2023-07-29T06:48:06;101291.94;;;18.60;62.00
60897;BME280;46749;32.932;-117.130;2023-07-29T06:50:32;101301.59;;;18.59;61.55
60897;BME280;46749;32.932;-117.130;2023-07-29T06:52:58;101304.22;;;18.59;61.93
60897;BME280;46749;32.932;-117.130;2023-07-29T06:55:25;101304.22;;;18.59;61.82
60897;BME280;46749;32.932;-117.130;2023-07-29T06:57:51;101313.84;;;18.57;61.80
60897;BME280;46749;32.932;-117.130;2023-07-29T07:00:17;101306.84;;;18.58;61.60
60897;BME280;46749;32.932;-117.130;2023-07-29T07:02:43;101307.72;;;18.57;62.04
60897;BME280;46749;32.932;-117.130;2023-07-29T07:05:10;101315.59;;;18.57;61.87
60897;BME280;46749;32.932;-117.130;2023-07-29T07:07:36;101316.50;;;18.57;61.91
60897;BME280;46749;32.932;-117.130;2023-07-29T07:10:03;101313.84;;;18.57;61.88
60897;BME280;46749;32.932;-117.130;2023-07-29T07:12:30;101316.47;;;18.56;62.10
60897;BME280;46749;32.932;-117.130;2023-07-29T07:14:56;101312.97;;;18.55;61.90
60897;BME280;46749;32.932;-117.130;2023-07-29T07:17:22;101308.56;;;18.54;61.77
60897;BME280;46749;32.932;-117.130;2023-07-29T07:19:48;101307.69;;;18.55;61.86
60897;BME280;46749;32.932;-117.130;2023-07-29T07:22:15;101298.00;;;18.53;62.00
60897;BME280;46749;32.932;-117.130;2023-07-29T07:24:42;101306.78;;;18.53;61.62
60897;BME280;46749;32.932;-117.130;2023-07-29T07:27:08;101299.75;;;18.52;61.96
60897;BME280;46749;32.932;-117.130;2023-07-29T07:29:34;101301.50;;;18.52;61.72
60897;BME280;46749;32.932;-117.130;2023-07-29T07:32:00;101300.63;;;18.50;62.04
60897;BME280;46749;32.932;-117.130;2023-07-29T07:34:26;101303.25;;;18.51;61.81
60897;BME280;46749;32.932;-117.130;2023-07-29T07:36:52;101300.63;;;18.51;62.12
60897;BME280;46749;32.932;-117.130;2023-07-29T07:39:19;101303.25;;;18.51;61.73
60897;BME280;46749;32.932;-117.130;2023-07-29T07:41:45;101306.75;;;18.50;62.11
60897;BME280;46749;32.932;-117.130;2023-07-29T07:44:12;101309.38;;;18.50;61.70
60897;BME280;46749;32.932;-117.130;2023-07-29T07:46:41;101306.75;;;18.50;61.64
60897;BME280;46749;32.932;-117.130;2023-07-29T07:49:07;101310.25;;;18.49;62.12
60897;BME280;46749;32.932;-117.130;2023-07-29T07:51:34;101311.13;;;18.48;61.76
60897;BME280;46749;32.932;-117.130;2023-07-29T07:54:00;101311.13;;;18.48;61.96
60897;BME280;46749;32.932;-117.130;2023-07-29T07:56:26;101317.25;;;18.49;61.63
60897;BME280;46749;32.932;-117.130;2023-07-29T07:58:52;101311.97;;;18.47;61.54
60897;BME280;46749;32.932;-117.130;2023-07-29T08:01:18;101311.06;;;18.47;61.69
60897;BME280;46749;32.932;-117.130;2023-07-29T08:03:45;101310.19;;;18.46;61.84
60897;BME280;46749;32.932;-117.130;2023-07-29T08:06:11;101304.94;;;18.46;61.88
60897;BME280;46749;32.932;-117.130;2023-07-29T08:08:37;101298.78;;;18.46;61.98
60897;BME280;46749;32.932;-117.130;2023-07-29T08:11:03;101301.41;;;18.44;62.06
60897;BME280;46749;32.932;-117.130;2023-07-29T08:13:29;101296.16;;;18.44;61.81
60897;BME280;46749;32.932;-117.130;2023-07-29T08:15:56;101303.16;;;18.44;61.85
60897;BME280;46749;32.932;-117.130;2023-07-29T08:18:22;101302.28;;;18.43;62.06
60897;BME280;46749;32.932;-117.130;2023-07-29T08:20:56;101308.41;;;18.44;61.71
60897;BME280;46749;32.932;-117.130;2023-07-29T08:23:30;101299.66;;;18.43;62.01
60897;BME280;46749;32.932;-117.130;2023-07-29T08:25:58;101292.63;;;18.42;62.03
60897;BME280;46749;32.932;-117.130;2023-07-29T08:28:30;101297.03;;;18.43;61.76
60897;BME280;46749;32.932;-117.130;2023-07-29T08:30:56;101300.50;;;18.42;61.59
60897;BME280;46749;32.932;-117.130;2023-07-29T08:33:22;101302.25;;;18.42;61.88
60897;BME280;46749;32.932;-117.130;2023-07-29T08:35:48;101301.34;;;18.41;61.87
60897;BME280;46749;32.932;-117.130;2023-07-29T08:38:15;101307.47;;;18.40;62.01
60897;BME280;46749;32.932;-117.130;2023-07-29T08:40:46;101302.22;;;18.39;61.78
60897;BME280;46749;32.932;-117.130;2023-07-29T08:43:17;101292.56;;;18.39;61.80
60897;BME280;46749;32.932;-117.130;2023-07-29T08:45:45;101295.19;;;18.39;61.62
60897;BME280;46749;32.932;-117.130;2023-07-29T08:48:12;101299.56;;;18.39;62.07
60897;BME280;46749;32.932;-117.130;2023-07-29T08:50:44;101290.81;;;18.38;61.92
60897;BME280;46749;32.932;-117.130;2023-07-29T08:53:11;101290.81;;;18.38;61.72
60897;BME280;46749;32.932;-117.130;2023-07-29T08:55:39;101291.69;;;18.37;61.73
60897;BME280;46749;32.932;-117.130;2023-07-29T08:58:05;101277.66;;;18.37;61.93
60897;BME280;46749;32.932;-117.130;2023-07-29T09:00:32;101273.25;;;18.36;61.65
60897;BME280;46749;32.932;-117.130;2023-07-29T09:02:58;101268.84;;;18.34;61.78
60897;BME280;46749;32.932;-117.130;2023-07-29T09:05:30;101270.63;;;18.36;61.91
60897;BME280;46749;32.932;-117.130;2023-07-29T09:07:56;101272.31;;;18.33;61.76
60897;BME280;46749;32.932;-117.130;2023-07-29T09:10:22;101268.84;;;18.34;61.95
60897;BME280;46749;32.932;-117.130;2023-07-29T09:12:52;101267.06;;;18.33;62.04
60897;BME280;46749;32.932;-117.130;2023-07-29T09:15:32;101270.59;;;18.34;61.92
60897;BME280;46749;32.932;-117.130;2023-07-29T09:17:59;101266.19;;;18.33;61.79
60897;BME280;46749;32.932;-117.130;2023-07-29T09:20:34;101264.44;;;18.32;61.53
60897;BME280;46749;32.932;-117.130;2023-07-29T09:23:00;101268.81;;;18.31;61.56
60897;BME280;46749;32.932;-117.130;2023-07-29T09:25:29;101260.03;;;18.31;61.95
60897;BME280;46749;32.932;-117.130;2023-07-29T09:27:59;101267.91;;;18.29;61.56
60897;BME280;46749;32.932;-117.130;2023-07-29T09:30:26;101267.03;;;18.30;61.89
60897;BME280;46749;32.932;-117.130;2023-07-29T09:32:57;101266.16;;;18.30;61.86
60897;BME280;46749;32.932;-117.130;2023-07-29T09:35:24;101259.13;;;18.29;61.71
60897;BME280;46749;32.932;-117.130;2023-07-29T09:37:51;101267.00;;;18.29;61.66
60897;BME280;46749;32.932;-117.130;2023-07-29T09:40:18;101272.25;;;18.29;61.64
60897;BME280;46749;32.932;-117.130;2023-07-29T09:42:52;101263.50;;;18.28;61.49
60897;BME280;46749;32.932;-117.130;2023-07-29T09:45:26;101262.59;;;18.26;61.95
60897;BME280;46749;32.932;-117.130;2023-07-29T09:47:53;101266.09;;;18.27;62.00
60897;BME280;46749;32.932;-117.130;2023-07-29T09:50:29;101263.47;;;18.25;61.95
60897;BME280;46749;32.932;-117.130;2023-07-29T09:52:56;101261.72;;;18.26;61.73
60897;BME280;46749;32.932;-117.130;2023-07-29T09:55:26;101271.34;;;18.25;61.88
60897;BME280;46749;32.932;-117.130;2023-07-29T09:58:00;101275.72;;;18.25;61.66
60897;BME280;46749;32.932;-117.130;2023-07-29T10:00:34;101274.84;;;18.24;61.88
60897;BME280;46749;32.932;-117.130;2023-07-29T10:03:00;101275.72;;;18.23;61.81
60897;BME280;46749;32.932;-117.130;2023-07-29T10:05:27;101282.72;;;18.23;61.89
60897;BME280;46749;32.932;-117.130;2023-07-29T10:07:54;101280.09;;;18.23;61.73
60897;BME280;46749;32.932;-117.130;2023-07-29T10:10:21;101273.03;;;18.22;61.49
60897;BME280;46749;32.932;-117.130;2023-07-29T10:12:48;101278.31;;;18.22;61.71
60897;BME280;46749;32.932;-117.130;2023-07-29T10:15:15;101271.28;;;18.21;61.64
60897;BME280;46749;32.932;-117.130;2023-07-29T10:17:41;101274.78;;;18.20;61.55
60897;BME280;46749;32.932;-117.130;2023-07-29T10:20:09;101277.41;;;18.20;61.58
60897;BME280;46749;32.932;-117.130;2023-07-29T10:22:40;101273.91;;;18.19;61.76
60897;BME280;46749;32.932;-117.130;2023-07-29T10:25:18;101277.38;;;18.18;61.55
60897;BME280;46749;32.932;-117.130;2023-07-29T10:27:51;101268.63;;;18.18;61.74
60897;BME280;46749;32.932;-117.130;2023-07-29T10:30:18;101277.38;;;18.18;61.66
60897;BME280;46749;32.932;-117.130;2023-07-29T10:32:45;101278.25;;;18.17;61.86
60897;BME280;46749;32.932;-117.130;2023-07-29T10:35:13;101272.97;;;18.16;61.69
60897;BME280;46749;32.932;-117.130;2023-07-29T10:37:39;101278.22;;;18.16;61.70
60897;BME280;46749;32.932;-117.130;2023-07-29T10:40:09;101270.31;;;18.16;61.54
60897;BME280;46749;32.932;-117.130;2023-07-29T10:42:36;101271.19;;;18.15;61.37
60897;BME280;46749;32.932;-117.130;2023-07-29T10:45:21;101275.56;;;18.14;61.50
60897;BME280;46749;32.932;-117.130;2023-07-29T10:47:48;101268.56;;;18.15;61.63
60897;BME280;46749;32.932;-117.130;2023-07-29T10:50:20;101269.44;;;18.14;61.71
60897;BME280;46749;32.932;-117.130;2023-07-29T10:52:54;101266.78;;;18.12;61.63
60897;BME280;46749;32.932;-117.130;2023-07-29T10:55:30;101267.66;;;18.13;61.69
60897;BME280;46749;32.932;-117.130;2023-07-29T10:58:15;101274.66;;;18.11;61.58
60897;BME280;46749;32.932;-117.130;2023-07-29T11:00:45;101265.03;;;18.11;61.34
60897;BME280;46749;32.932;-117.130;2023-07-29T11:03:13;101260.59;;;18.10;61.43
60897;BME280;46749;32.932;-117.130;2023-07-29T11:05:52;101260.59;;;18.09;61.40
60897;BME280;46749;32.932;-117.130;2023-07-29T11:08:23;101258.84;;;18.09;61.62
60897;BME280;46749;32.932;-117.130;2023-07-29T11:11:08;101265.84;;;18.09;61.41
60897;BME280;46749;32.932;-117.130;2023-07-29T11:13:36;101263.22;;;18.07;61.55
60897;BME280;46749;32.932;-117.130;2023-07-29T11:16:04;101268.47;;;18.07;61.55
60897;BME280;46749;32.932;-117.130;2023-07-29T11:18:33;101270.22;;;18.06;61.34
60897;BME280;46749;32.932;-117.130;2023-07-29T11:21:00;101278.97;;;18.05;61.27
60897;BME280;46749;32.932;-117.130;2023-07-29T11:23:34;101280.72;;;18.05;61.77
60897;BME280;46749;32.932;-117.130;2023-07-29T11:26:02;101285.09;;;18.04;61.46
60897;BME280;46749;32.932;-117.130;2023-07-29T11:28:28;101288.56;;;18.03;61.68
60897;BME280;46749;32.932;-117.130;2023-07-29T11:30:58;101288.56;;;18.03;61.55
60897;BME280;46749;32.932;-117.130;2023-07-29T11:33:26;101292.03;;;18.02;61.75
60897;BME280;46749;32.932;-117.130;2023-07-29T11:35:54;101292.94;;;18.03;61.64
60897;BME280;46749;32.932;-117.130;2023-07-29T11:38:21;101296.41;;;18.02;61.66
60897;BME280;46749;32.932;-117.130;2023-07-29T11:40:59;101298.16;;;18.01;61.29
60897;BME280;46749;32.932;-117.130;2023-07-29T11:43:25;101297.28;;;18.01;61.44
60897;BME280;46749;32.932;-117.130;2023-07-29T11:45:52;101292.00;;;17.99;61.31
60897;BME280;46749;32.932;-117.130;2023-07-29T11:48:31;101301.66;;;17.99;61.47
60897;BME280;46749;32.932;-117.130;2023-07-29T11:50:57;101307.78;;;17.99;61.69
60897;BME280;46749;32.932;-117.130;2023-07-29T11:53:29;101297.28;;;17.99;61.89
60897;BME280;46749;32.932;-117.130;2023-07-29T11:55:56;101296.38;;;17.99;61.35
60897;BME280;46749;32.932;-117.130;2023-07-29T11:58:23;101295.50;;;17.98;61.67
60897;BME280;46749;32.932;-117.130;2023-07-29T12:00:49;101294.56;;;17.96;61.56
60897;BME280;46749;32.932;-117.130;2023-07-29T12:03:17;101288.47;;;17.97;61.58
60897;BME280;46749;32.932;-117.130;2023-07-29T12:05:44;101285.81;;;17.96;61.39
60897;BME280;46749;32.932;-117.130;2023-07-29T12:08:10;101290.19;;;17.95;61.25
60897;BME280;46749;32.932;-117.130;2023-07-29T12:10:37;101288.44;;;17.94;61.46
60897;BME280;46749;32.932;-117.130;2023-07-29T12:13:03;101290.19;;;17.94;61.59
60897;BME280;46749;32.932;-117.130;2023-07-29T12:15:30;101294.53;;;17.93;61.41
60897;BME280;46749;32.932;-117.130;2023-07-29T12:17:57;101301.56;;;17.93;61.21
60897;BME280;46749;32.932;-117.130;2023-07-29T12:20:24;101296.25;;;17.91;61.24
60897;BME280;46749;32.932;-117.130;2023-07-29T12:22:58;101303.25;;;17.91;61.43
60897;BME280;46749;32.932;-117.130;2023-07-29T12:25:27;101306.75;;;17.90;61.48
60897;BME280;46749;32.932;-117.130;2023-07-29T12:27:54;101320.75;;;17.90;61.36
60897;BME280;46749;32.932;-117.130;2023-07-29T12:30:21;101312.88;;;17.90;61.36
60897;BME280;46749;32.932;-117.130;2023-07-29T12:32:48;101303.22;;;17.89;61.46
60897;BME280;46749;32.932;-117.130;2023-07-29T12:35:14;101317.25;;;17.90;61.34